Time;durP1;ratioP1;P1;durP2;ratioP2;P2;SDS_P1;SDS_P2;PMS_P1;PMS_P2;Temp;Humidity;BMP_temperature;BMP_pressure;BME280_temperature;BME280_humidity;BME280_pressure;Samples;Min_cycle;Max_cycle;Signal;HPM_P1;HPM_P2
2022/12/13 00:00:05;;;;;;;16.55;9.55;;;;;;;-7.43;95.97;95773.63;5004435;28;20508;-66
2022/12/13 00:02:30;;;;;;;15.05;10.23;;;;;;;-7.48;96.39;95780.84;5004323;28;20042;-66
2022/12/13 00:04:56;;;;;;;19.95;9.93;;;;;;;-7.50;95.97;95768.59;5005649;28;20482;-67
2022/12/13 00:07:21;;;;;;;17.65;10.35;;;;;;;-7.53;96.22;95777.13;5001271;28;20415;-67
2022/12/13 00:09:46;;;;;;;16.45;10.20;;;;;;;-7.46;95.38;95768.84;5006235;28;20084;-66
2022/12/13 00:12:12;;;;;;;18.85;10.75;;;;;;;-7.47;95.59;95764.63;5001781;28;20061;-66
2022/12/13 00:14:37;;;;;;;17.00;9.48;;;;;;;-7.50;95.98;95773.13;5004769;28;20069;-66
2022/12/13 00:17:03;;;;;;;15.77;9.23;;;;;;;-7.47;95.42;95769.13;5017442;28;20053;-63
2022/12/13 00:19:28;;;;;;;18.75;9.75;;;;;;;-7.53;95.90;95765.69;5004442;28;20578;-66
2022/12/13 00:21:54;;;;;;;18.00;10.05;;;;;;;-7.54;95.96;95767.56;5020391;28;20101;-66
2022/12/13 00:24:19;;;;;;;16.33;10.43;;;;;;;-7.68;96.96;95762.03;4999725;28;20455;-67
2022/12/13 00:26:44;;;;;;;16.20;9.68;;;;;;;-7.61;96.23;95760.97;5004190;28;20137;-67
2022/12/13 00:29:10;;;;;;;18.73;10.32;;;;;;;-7.69;96.81;95749.84;4999497;28;20080;-65
2022/12/13 00:31:36;;;;;;;23.05;10.38;;;;;;;-7.65;96.64;95754.59;5003870;28;20042;-67
2022/12/13 00:34:01;;;;;;;17.67;9.43;;;;;;;-7.68;96.94;95746.09;5003358;28;20042;-67
2022/12/13 00:36:27;;;;;;;17.35;10.15;;;;;;;-7.70;97.03;95750.88;4997732;28;20077;-67
2022/12/13 00:39:01;;;;;;;20.27;10.05;;;;;;;-7.71;97.14;95748.50;5001312;28;20045;-67
2022/12/13 00:41:29;;;;;;;14.00;9.05;;;;;;;-7.71;97.39;95743.97;4997959;28;20046;-67
2022/12/13 00:43:55;;;;;;;17.23;9.10;;;;;;;-7.68;97.10;95737.31;5003056;28;20042;-66
2022/12/13 00:46:21;;;;;;;16.08;9.90;;;;;;;-7.59;96.62;95734.88;5011174;28;20056;-67
2022/12/13 00:48:55;;;;;;;14.70;8.52;;;;;;;-7.57;96.13;95732.75;5017430;28;20056;-69
2022/12/13 00:51:21;;;;;;;15.38;9.55;;;;;;;-7.50;95.58;95733.25;5013160;28;20050;-67
2022/12/13 00:53:47;;;;;;;14.55;8.68;;;;;;;-7.48;95.28;95731.09;5010923;28;20050;-67
2022/12/13 00:56:20;;;;;;;16.58;9.57;;;;;;;-7.50;95.51;95728.72;4997140;28;20050;-66
2022/12/13 00:58:46;;;;;;;15.35;9.20;;;;;;;-7.54;95.69;95722.34;5001250;28;20048;-66
2022/12/13 01:01:14;;;;;;;14.38;8.85;;;;;;;-7.56;95.97;95731.66;4997727;28;20104;-67
2022/12/13 01:03:41;;;;;;;15.73;9.27;;;;;;;-7.56;95.98;95721.84;5001962;28;20333;-68
2022/12/13 01:06:17;;;;;;;13.90;8.85;;;;;;;-7.53;95.72;95713.28;4994913;28;20054;-67
2022/12/13 01:08:43;;;;;;;15.98;9.57;;;;;;;-7.47;95.42;95721.25;5001382;28;20046;-67
2022/12/13 01:11:09;;;;;;;18.30;9.50;;;;;;;-7.55;95.83;95714.66;4995360;28;20073;-67
2022/12/13 01:13:35;;;;;;;16.77;10.43;;;;;;;-7.50;95.50;95711.97;5016675;28;20042;-66
2022/12/13 01:16:03;;;;;;;18.60;9.52;;;;;;;-7.43;95.00;95714.31;4999646;28;20038;-67
2022/12/13 01:18:29;;;;;;;16.08;9.20;;;;;;;-7.47;95.64;95719.41;4999192;28;20099;-67
2022/12/13 01:21:13;;;;;;;15.95;8.30;;;;;;;-7.43;94.93;95728.41;5013873;28;20057;-67
2022/12/13 01:23:40;;;;;;;15.95;8.88;;;;;;;-7.41;94.63;95718.28;5000269;28;20096;-67
2022/12/13 01:26:10;;;;;;;17.75;8.80;;;;;;;-7.44;95.51;95716.16;4995016;28;20407;-66
2022/12/13 01:28:35;;;;;;;14.27;9.10;;;;;;;-7.38;94.79;95704.44;5007113;28;20139;-67
2022/12/13 01:31:09;;;;;;;14.15;9.65;;;;;;;-7.44;94.66;95697.56;5003648;28;20065;-65
2022/12/13 01:33:35;;;;;;;13.82;8.02;;;;;;;-7.47;95.10;95711.41;5000624;28;20041;-65
2022/12/13 01:36:04;;;;;;;17.80;10.15;;;;;;;-7.56;95.51;95694.44;5001288;28;20091;-71
2022/12/13 01:38:29;;;;;;;18.05;8.75;;;;;;;-7.61;95.70;95694.47;5001656;28;20129;-68
2022/12/13 01:40:58;;;;;;;14.50;8.30;;;;;;;-7.66;95.83;95697.16;5001419;28;20475;-68
2022/12/13 01:43:27;;;;;;;16.23;7.93;;;;;;;-7.72;96.42;95688.44;4979306;28;20060;-66
2022/12/13 01:45:52;;;;;;;16.80;9.23;;;;;;;-7.79;97.09;95693.25;5013410;28;20052;-67
2022/12/13 01:48:23;;;;;;;12.95;9.07;;;;;;;-7.76;96.25;95688.19;5007315;28;20157;-67
2022/12/13 01:50:51;;;;;;;23.20;9.13;;;;;;;-7.71;95.89;95697.97;5002317;28;20458;-66
2022/12/13 01:53:21;;;;;;;15.63;8.02;;;;;;;-7.72;96.35;95702.50;4996722;28;20034;-67
2022/12/13 01:55:52;;;;;;;13.50;8.20;;;;;;;-7.77;96.79;95709.72;5000065;28;20050;-68
2022/12/13 01:58:19;;;;;;;14.07;9.05;;;;;;;-7.83;96.79;95703.63;4996478;28;20376;-67
2022/12/13 02:00:46;;;;;;;14.10;8.43;;;;;;;-7.88;96.88;95704.44;4999697;28;20380;-66
2022/12/13 02:03:11;;;;;;;16.30;8.45;;;;;;;-7.80;97.02;95704.94;4996553;28;20538;-67
2022/12/13 02:05:55;;;;;;;13.77;8.23;;;;;;;-7.85;96.83;95697.00;5000002;28;20453;-67
2022/12/13 02:08:21;;;;;;;15.50;9.20;;;;;;;-7.73;96.31;95694.81;5000758;28;20053;-67
2022/12/13 02:10:47;;;;;;;17.25;9.38;;;;;;;-7.76;96.30;95692.69;5021120;28;20042;-68
2022/12/13 02:13:12;;;;;;;17.45;9.13;;;;;;;-7.78;95.73;95684.97;5011084;28;20046;-67
2022/12/13 02:16:01;;;;;;;14.82;7.90;;;;;;;-7.78;96.47;95689.50;5001854;28;20507;-67
2022/12/13 02:18:45;;;;;;;11.65;7.55;;;;;;;-7.81;96.30;95682.06;4993784;28;20400;-67
2022/12/13 02:21:46;;;;;;;16.70;8.25;;;;;;;-7.93;97.36;95690.38;5010209;28;20037;-67
2022/12/13 02:24:24;;;;;;;16.42;8.73;;;;;;;-7.87;96.45;95686.63;4973218;28;20053;-67
2022/12/13 02:27:01;;;;;;;14.27;8.18;;;;;;;-7.91;97.17;95690.91;4983749;28;20467;-67
2022/12/13 02:29:39;;;;;;;14.73;8.30;;;;;;;-7.83;96.51;95677.06;4979745;28;20078;-65
2022/12/13 02:32:29;;;;;;;15.23;7.85;;;;;;;-7.71;96.55;95679.38;4981383;28;20042;-64
2022/12/13 02:35:10;;;;;;;15.75;8.25;;;;;;;-7.80;95.99;95668.50;4983083;28;20030;-69
2022/12/13 02:38:13;;;;;;;11.77;7.18;;;;;;;-7.77;96.40;95672.50;4985316;28;20038;-68
2022/12/13 02:40:43;;;;;;;14.10;8.48;;;;;;;-7.83;96.56;95662.94;5001075;28;20046;-68
2022/12/13 02:43:18;;;;;;;13.60;8.52;;;;;;;-7.81;96.09;95669.59;4999565;28;20128;-67
2022/12/13 02:45:49;;;;;;;14.02;7.72;;;;;;;-7.89;96.59;95662.19;5035489;28;20042;-68
2022/12/13 02:48:22;;;;;;;15.23;8.80;;;;;;;-7.84;96.57;95664.03;5000828;28;20037;-68
2022/12/13 02:50:50;;;;;;;16.60;8.00;;;;;;;-7.90;96.63;95655.31;5005606;28;20112;-66
2022/12/13 02:53:17;;;;;;;15.38;8.20;;;;;;;-7.92;96.50;95666.19;4999080;28;20475;-67
2022/12/13 02:55:42;;;;;;;15.57;8.60;;;;;;;-7.85;96.30;95665.88;5001573;28;20145;-66
2022/12/13 02:58:12;;;;;;;13.13;7.93;;;;;;;-7.92;96.38;95655.56;4970264;28;20047;-67
2022/12/13 03:01:04;;;;;;;13.70;8.73;;;;;;;-7.95;96.72;95650.00;4989160;28;20074;-65
2022/12/13 03:03:41;;;;;;;17.08;8.82;;;;;;;-7.92;96.31;95649.47;5013024;28;20038;-68
2022/12/13 03:06:28;;;;;;;13.63;7.90;;;;;;;-7.85;95.96;95639.28;5003119;28;20534;-66
2022/12/13 03:09:15;;;;;;;21.60;8.30;;;;;;;-7.88;96.20;95640.66;5014653;28;20038;-67
2022/12/13 03:15:00;;;;;;;12.63;6.93;;;;;;;-7.84;97.02;95632.13;5015024;28;20050;-68
2022/12/13 03:17:31;;;;;;;15.05;8.70;;;;;;;-7.79;96.03;95634.78;5009998;28;20479;-67
2022/12/13 03:19:56;;;;;;;12.80;7.53;;;;;;;-7.80;95.84;95623.31;5006855;28;20041;-68
2022/12/13 03:22:22;;;;;;;14.38;8.23;;;;;;;-7.77;95.77;95633.41;5003893;28;20271;-67
2022/12/13 03:24:48;;;;;;;13.57;7.20;;;;;;;-7.86;95.56;95631.63;5004141;28;20041;-67
2022/12/13 03:27:14;;;;;;;13.95;8.32;;;;;;;-7.86;95.69;95632.41;4998431;28;20042;-64
2022/12/13 03:29:39;;;;;;;16.45;7.97;;;;;;;-7.91;96.00;95624.47;5004692;28;20049;-65
2022/12/13 03:32:04;;;;;;;14.05;7.60;;;;;;;-7.92;95.73;95626.34;4999412;28;20049;-64
2022/12/13 03:34:30;;;;;;;16.75;7.72;;;;;;;-7.93;95.71;95626.59;5004162;28;20042;-67
2022/12/13 03:36:55;;;;;;;11.82;7.25;;;;;;;-7.90;96.10;95629.50;5001239;28;20076;-67
2022/12/13 03:39:21;;;;;;;15.02;8.68;;;;;;;-7.95;95.65;95629.53;4998472;28;20038;-68
2022/12/13 03:41:47;;;;;;;16.88;8.00;;;;;;;-7.98;96.23;95627.41;5002586;28;20081;-69
2022/12/13 03:44:13;;;;;;;15.77;7.20;;;;;;;-7.91;96.02;95629.78;4998599;28;20053;-68
2022/12/13 03:46:38;;;;;;;16.83;7.90;;;;;;;-7.95;95.92;95618.91;5001380;28;20042;-66
2022/12/13 03:49:04;;;;;;;15.90;8.10;;;;;;;-8.01;96.00;95620.00;4998674;28;20176;-64
2022/12/13 03:51:29;;;;;;;13.18;8.45;;;;;;;-8.00;96.38;95613.59;5002926;28;20046;-67
2022/12/13 03:53:55;;;;;;;13.40;7.15;;;;;;;-8.05;96.28;95610.19;5003280;28;20042;-67
2022/12/13 03:56:20;;;;;;;17.25;8.52;;;;;;;-8.03;96.29;95613.38;4977252;28;20134;-67
2022/12/13 03:58:46;;;;;;;14.43;7.90;;;;;;;-8.18;96.57;95615.03;4983405;28;20554;-66
2022/12/13 04:01:14;;;;;;;18.27;8.50;;;;;;;-8.27;97.17;95614.81;4979752;28;20030;-66
2022/12/13 04:03:44;;;;;;;14.43;8.90;;;;;;;-8.34;98.08;95608.22;4996021;28;20078;-67
2022/12/13 04:06:10;;;;;;;13.27;7.43;;;;;;;-8.31;97.54;95607.69;4978326;28;20042;-67
2022/12/13 04:08:36;;;;;;;13.73;8.77;;;;;;;-8.35;97.63;95606.63;4983704;28;20136;-66
2022/12/13 04:13:47;;;;;;;17.13;8.57;;;;;;;-8.44;98.41;95608.28;5003129;28;20046;-67
2022/12/13 04:16:12;;;;;;;15.55;8.25;;;;;;;-8.43;98.33;95615.19;4995858;28;20088;-66
2022/12/13 04:18:38;;;;;;;16.65;9.30;;;;;;;-8.40;97.89;95606.66;5002315;28;20115;-67
2022/12/13 04:21:03;;;;;;;20.60;8.88;;;;;;;-8.40;97.87;95611.97;4996667;28;20042;-66
2022/12/13 04:23:29;;;;;;;13.90;7.97;;;;;;;-8.31;97.65;95605.03;5002407;28;20462;-67
2022/12/13 04:25:55;;;;;;;16.30;8.68;;;;;;;-8.18;97.69;95606.28;5002132;28;20175;-67
2022/12/13 04:28:20;;;;;;;15.60;8.15;;;;;;;-8.15;96.88;95605.75;4997664;28;20042;-66
2022/12/13 04:30:46;;;;;;;14.32;7.38;;;;;;;-8.13;96.41;95608.91;5000668;28;20050;-68
2022/12/13 04:33:11;;;;;;;15.80;8.43;;;;;;;-8.16;95.93;95612.91;4998032;28;20188;-67
2022/12/13 04:35:37;;;;;;;12.25;7.70;;;;;;;-8.20;95.63;95608.41;5001845;28;20383;-67
2022/12/13 04:38:02;;;;;;;17.38;8.35;;;;;;;-8.18;96.15;95609.72;5000883;28;20069;-66
2022/12/13 04:40:27;;;;;;;18.98;8.50;;;;;;;-8.24;96.07;95607.38;4999981;28;20042;-67
2022/12/13 04:42:54;;;;;;;14.23;8.23;;;;;;;-8.28;96.38;95612.44;5003159;28;20052;-67
2022/12/13 04:45:21;;;;;;;12.75;7.13;;;;;;;-8.21;96.76;95612.94;4998316;28;20077;-66
2022/12/13 04:47:46;;;;;;;14.18;7.57;;;;;;;-8.02;96.06;95610.44;5001813;28;20049;-66
2022/12/13 04:50:12;;;;;;;14.40;8.65;;;;;;;-8.07;95.12;95608.63;4997886;28;20399;-67
2022/12/13 04:52:38;;;;;;;18.77;8.25;;;;;;;-8.16;95.09;95609.44;5003047;28;20050;-67
2022/12/13 04:55:05;;;;;;;13.52;7.50;;;;;;;-8.27;96.23;95603.41;4998904;28;20070;-66
2022/12/13 04:57:31;;;;;;;14.55;8.05;;;;;;;-8.26;95.93;95597.81;4980916;28;20070;-69
2022/12/13 04:59:56;;;;;;;15.05;8.35;;;;;;;-8.12;96.25;95597.19;4991447;28;20133;-68
2022/12/13 05:02:21;;;;;;;13.02;7.55;;;;;;;-8.08;95.17;95599.03;5005707;28;20041;-67
2022/12/13 05:04:47;;;;;;;14.95;7.90;;;;;;;-8.10;95.18;95605.72;5022115;28;20038;-67
2022/12/13 05:07:12;;;;;;;11.68;7.50;;;;;;;-8.07;94.99;95597.19;5012300;28;20022;-66
2022/12/13 05:09:38;;;;;;;11.75;7.57;;;;;;;-8.20;95.28;95597.78;5012205;28;20058;-66
2022/12/13 05:12:03;;;;;;;16.70;7.63;;;;;;;-8.29;95.47;95601.00;4998886;28;20064;-66
2022/12/13 05:14:32;;;;;;;13.35;7.47;;;;;;;-8.29;95.61;95595.69;4998680;28;20115;-68
2022/12/13 05:17:00;;;;;;;16.33;8.07;;;;;;;-8.33;96.12;95596.53;5001539;28;20442;-69
2022/12/13 05:19:26;;;;;;;16.45;8.30;;;;;;;-8.36;96.29;95603.16;4999311;28;20042;-68
2022/12/13 05:21:51;;;;;;;15.20;8.35;;;;;;;-8.34;96.09;95613.53;5003417;28;20049;-66
2022/12/13 05:24:17;;;;;;;19.13;8.48;;;;;;;-8.46;96.68;95605.91;5004169;28;20044;-66
2022/12/13 05:26:42;;;;;;;20.77;9.63;;;;;;;-8.41;96.21;95603.19;5008032;28;20042;-66
2022/12/13 05:29:08;;;;;;;16.10;8.30;;;;;;;-8.50;97.05;95599.53;5007006;28;20044;-66
2022/12/13 05:31:33;;;;;;;14.88;8.73;;;;;;;-8.55;97.49;95597.72;5009525;28;20132;-68
2022/12/13 05:33:59;;;;;;;14.40;8.68;;;;;;;-8.52;97.34;95599.81;5018140;28;20054;-67
2022/12/13 05:36:24;;;;;;;14.48;8.57;;;;;;;-8.55;97.25;95603.03;5003361;28;20046;-67
2022/12/13 05:38:51;;;;;;;18.77;9.02;;;;;;;-8.57;97.16;95607.81;5005560;28;20034;-67
2022/12/13 05:41:19;;;;;;;20.13;9.15;;;;;;;-8.59;97.22;95607.28;4988489;28;20050;-67
2022/12/13 05:43:45;;;;;;;15.65;8.45;;;;;;;-8.55;97.46;95605.69;4985044;28;20041;-67
2022/12/13 05:46:11;;;;;;;15.20;8.75;;;;;;;-8.55;97.15;95603.03;4980249;28;20117;-67
2022/12/13 05:48:37;;;;;;;16.65;9.63;;;;;;;-8.58;97.33;95600.91;4985624;28;20096;-69
2022/12/13 05:51:03;;;;;;;16.35;8.70;;;;;;;-8.59;97.45;95599.31;4983376;28;20038;-66
2022/12/13 05:53:28;;;;;;;18.95;9.20;;;;;;;-8.63;97.72;95592.16;4985963;28;20084;-66
2022/12/13 05:55:53;;;;;;;17.45;8.93;;;;;;;-8.67;97.55;95592.72;4985403;28;20559;-66
2022/12/13 05:58:19;;;;;;;21.13;9.57;;;;;;;-8.67;97.58;95592.72;4980810;28;20049;-66
2022/12/13 06:00:44;;;;;;;18.02;9.65;;;;;;;-8.65;97.72;95595.09;4983856;28;20038;-67
2022/12/13 06:03:10;;;;;;;14.48;8.50;;;;;;;-8.65;97.32;95593.22;4980381;28;20050;-67
2022/12/13 06:05:36;;;;;;;15.85;9.18;;;;;;;-8.64;97.47;95599.34;4983963;28;20077;-67
2022/12/13 06:08:01;;;;;;;17.20;9.50;;;;;;;-8.70;97.61;95593.25;4984864;28;20042;-67
2022/12/13 06:10:27;;;;;;;15.18;9.77;;;;;;;-8.72;97.86;95600.69;4983118;28;20061;-67
2022/12/13 06:12:53;;;;;;;17.58;9.23;;;;;;;-8.75;97.74;95589.81;4984259;28;20466;-67
2022/12/13 06:15:18;;;;;;;16.40;9.45;;;;;;;-8.78;97.96;95587.72;4980651;28;20221;-67
2022/12/13 06:17:44;;;;;;;18.23;9.32;;;;;;;-8.80;98.15;95593.28;4985508;28;20047;-67
2022/12/13 06:20:10;;;;;;;15.02;9.70;;;;;;;-8.84;98.69;95602.84;4978869;28;20112;-67
2022/12/13 06:22:35;;;;;;;16.50;9.93;;;;;;;-8.83;98.96;95593.81;4987558;28;20049;-66
2022/12/13 06:25:00;;;;;;;16.02;9.27;;;;;;;-8.82;98.16;95597.25;4986594;28;20042;-67
2022/12/13 06:27:26;;;;;;;16.55;9.00;;;;;;;-8.82;97.85;95594.63;4980696;28;20105;-66
2022/12/13 06:29:52;;;;;;;15.45;9.23;;;;;;;-8.86;98.74;95604.97;4986070;28;20097;-66
2022/12/13 06:32:17;;;;;;;18.75;9.65;;;;;;;-8.87;98.48;95614.81;4981206;28;20129;-67
2022/12/13 06:34:42;;;;;;;15.15;8.80;;;;;;;-8.90;98.43;95610.03;5000054;28;20049;-66
2022/12/13 06:37:11;;;;;;;16.55;9.20;;;;;;;-8.97;99.28;95612.16;4982055;28;20412;-66
2022/12/13 06:39:37;;;;;;;19.48;10.38;;;;;;;-9.06;99.55;95614.56;4985208;28;20074;-67
2022/12/13 06:42:07;;;;;;;18.90;9.90;;;;;;;-9.06;100.00;95619.88;4980227;28;20080;-66
2022/12/13 06:44:34;;;;;;;17.48;9.68;;;;;;;-9.16;100.00;95619.09;4985878;28;20050;-65
2022/12/13 06:47:00;;;;;;;16.98;9.40;;;;;;;-9.09;100.00;95614.31;4984878;28;20048;-68
2022/12/13 06:49:25;;;;;;;15.68;9.05;;;;;;;-9.06;100.00;95627.81;4975034;28;20050;-67
2022/12/13 06:51:51;;;;;;;17.25;10.23;;;;;;;-9.04;99.91;95624.91;4982260;28;20826;-66
2022/12/13 06:54:16;;;;;;;19.27;9.82;;;;;;;-9.05;100.00;95628.66;5010172;28;20038;-66
2022/12/13 06:56:41;;;;;;;19.42;10.02;;;;;;;-8.98;100.00;95617.72;4986901;28;20047;-65
2022/12/13 06:59:07;;;;;;;20.58;10.15;;;;;;;-9.09;99.84;95622.25;4980608;28;20073;-68
2022/12/13 07:01:32;;;;;;;16.92;10.18;;;;;;;-9.09;100.00;95615.13;4983418;28;20042;-68
2022/12/13 07:03:58;;;;;;;19.80;10.93;;;;;;;-9.06;100.00;95616.44;4995099;28;20046;-67
2022/12/13 07:06:24;;;;;;;19.58;11.23;;;;;;;-9.04;100.00;95611.66;4983418;28;20592;-68
2022/12/13 07:08:54;;;;;;;22.05;10.20;;;;;;;-9.02;100.00;95614.03;4980057;28;20042;-67
2022/12/13 07:11:22;;;;;;;19.08;9.82;;;;;;;-8.97;100.00;95620.13;4989554;28;20034;-68
2022/12/13 07:13:48;;;;;;;21.85;10.43;;;;;;;-8.96;100.00;95624.38;4984262;28;20042;-67
2022/12/13 07:16:14;;;;;;;19.15;10.73;;;;;;;-9.00;100.00;95618.03;4967055;28;20038;-67
2022/12/13 07:18:39;;;;;;;24.05;11.40;;;;;;;-9.17;100.00;95617.50;4965939;28;20482;-68
2022/12/13 07:21:11;;;;;;;25.50;11.30;;;;;;;-9.12;100.00;95623.59;4970073;28;20043;-66
2022/12/13 07:23:40;;;;;;;18.95;9.80;;;;;;;-9.02;100.00;95624.66;4985183;28;20042;-67
2022/12/13 07:26:07;;;;;;;23.45;11.18;;;;;;;-8.93;100.00;95621.19;5001048;28;20042;-66
2022/12/13 07:28:37;;;;;;;18.40;10.65;;;;;;;-8.90;100.00;95633.91;4985910;28;20498;-67
2022/12/13 07:31:05;;;;;;;16.75;10.43;;;;;;;-8.73;100.00;95628.31;4965686;28;20038;-65
2022/12/13 07:33:32;;;;;;;21.88;12.15;;;;;;;-8.85;100.00;95636.56;4993101;23;20054;-69
2022/12/13 07:36:12;;;;;;;22.05;10.85;;;;;;;-8.87;99.42;95637.91;4988802;28;20134;-69
2022/12/13 07:38:38;;;;;;;20.23;11.77;;;;;;;-8.98;99.30;95645.09;5000594;28;20065;-69
2022/12/13 07:41:05;;;;;;;23.02;12.43;;;;;;;-8.98;99.94;95646.91;4972352;28;20491;-68
2022/12/13 07:43:34;;;;;;;25.20;13.50;;;;;;;-8.92;99.61;95646.66;4963426;28;20069;-67
2022/12/13 07:46:01;;;;;;;;;;;;;;;-8.86;99.74;95655.41;4965947;28;20079;-70
2022/12/13 07:48:27;;;;;;;21.17;11.20;;;;;;;-8.79;99.29;95652.47;4989381;28;19918;-67
2022/12/13 07:50:53;;;;;;;22.00;13.05;;;;;;;-8.73;98.60;95659.34;5008319;28;20042;-69
2022/12/13 07:53:20;;;;;;;22.67;12.25;;;;;;;-8.59;99.50;95660.38;4998011;28;20070;-68
2022/12/13 07:55:45;;;;;;;26.15;11.27;;;;;;;-8.55;98.65;95658.78;5004592;28;20038;-69
2022/12/13 07:58:13;;;;;;;25.88;13.63;;;;;;;-8.60;98.29;95661.44;4996196;28;20088;-68
2022/12/13 08:00:41;;;;;;;24.27;13.02;;;;;;;-8.54;98.07;95656.91;5003647;28;20107;-69
2022/12/13 08:03:07;;;;;;;19.63;12.47;;;;;;;-8.44;97.41;95654.25;4998686;28;20053;-68
2022/12/13 08:05:33;;;;;;;23.17;12.35;;;;;;;-8.38;96.90;95657.63;5003181;28;20038;-68
2022/12/13 08:07:59;;;;;;;23.10;12.02;;;;;;;-8.12;96.16;95664.44;5002948;28;20042;-70
2022/12/13 08:10:25;;;;;;;21.92;11.68;;;;;;;-8.27;96.36;95662.63;4998159;28;20250;-68
2022/12/13 08:12:50;;;;;;;24.00;13.10;;;;;;;-8.38;96.63;95668.25;5004092;28;20077;-69
2022/12/13 08:15:16;;;;;;;31.48;16.60;;;;;;;-8.43;97.17;95665.66;4997903;28;20145;-68
2022/12/13 08:17:42;;;;;;;29.33;18.75;;;;;;;-8.48;97.37;95669.91;5002075;28;20515;-68
2022/12/13 08:20:07;;;;;;;28.77;16.95;;;;;;;-8.41;97.96;95669.59;5001764;28;20054;-68
2022/12/13 08:22:33;;;;;;;27.02;17.38;;;;;;;-8.41;96.72;95671.44;5005250;28;20102;-69
2022/12/13 08:24:58;;;;;;;32.35;18.25;;;;;;;-8.33;97.28;95670.91;5004853;28;20145;-69
2022/12/13 08:27:24;;;;;;;24.27;15.50;;;;;;;-8.31;96.67;95666.91;4999847;28;20866;-69
2022/12/13 08:29:49;;;;;;;25.30;13.43;;;;;;;-8.32;96.46;95677.78;5003081;28;20145;-68
2022/12/13 08:32:15;;;;;;;27.23;17.40;;;;;;;-8.31;96.78;95671.44;4999176;28;20129;-68
2022/12/13 08:34:41;;;;;;;30.30;15.70;;;;;;;-8.32;96.65;95686.56;5004479;28;20046;-68
2022/12/13 08:37:06;;;;;;;29.92;14.85;;;;;;;-8.15;96.99;95682.78;5007590;28;20045;-67
2022/12/13 08:39:35;;;;;;;23.88;15.50;;;;;;;-8.18;97.14;95675.34;5011457;28;20045;-68
2022/12/13 08:42:05;;;;;;;30.80;15.18;;;;;;;-8.01;96.34;95675.81;5004572;28;20033;-68
2022/12/13 08:44:30;;;;;;;25.65;14.02;;;;;;;-8.13;96.38;95678.78;5007074;28;20137;-68
2022/12/13 08:46:56;;;;;;;26.35;14.27;;;;;;;-8.01;95.72;95686.44;5006129;28;20061;-69
2022/12/13 08:49:21;;;;;;;23.60;12.45;;;;;;;-7.97;95.20;95679.50;4991855;28;20115;-70
2022/12/13 08:51:47;;;;;;;32.10;18.73;;;;;;;-8.00;94.81;95684.56;4993256;28;20041;-69
2022/12/13 08:54:13;;;;;;;29.52;15.40;;;;;;;-7.69;95.02;95687.88;4984210;28;20116;-69
2022/12/13 08:56:41;;;;;;;22.48;12.90;;;;;;;-7.61;93.44;95686.50;5011682;28;20057;-69
2022/12/13 08:59:07;;;;;;;27.63;16.50;;;;;;;-7.70;94.26;95686.28;4985855;28;20088;-68
2022/12/13 09:01:55;;;;;;;29.42;14.43;;;;;;;-7.77;93.99;95699.09;4983689;28;20475;-69
2022/12/13 09:04:24;;;;;;;30.50;17.33;;;;;;;-7.54;91.81;95703.75;4943499;28;20043;-69
2022/12/13 09:07:02;;;;;;;22.13;12.75;;;;;;;-7.41;92.09;95693.56;4942532;28;20133;-69
2022/12/13 09:09:28;;;;;;;24.88;14.52;;;;;;;-7.57;93.07;95695.50;4946422;28;20145;-69
2022/12/13 09:11:54;;;;;;;22.88;12.25;;;;;;;-7.45;91.16;95695.97;4959348;28;20062;-70
2022/12/13 09:14:41;;;;;;;25.02;13.38;;;;;;;-7.69;92.50;95703.81;4958934;28;20504;-69
2022/12/13 09:17:20;;;;;;;32.85;15.93;;;;;;;-7.54;94.08;95706.41;4941926;28;20034;-69
2022/12/13 09:19:58;;;;;;;25.08;12.52;;;;;;;-6.66;90.74;95711.88;4957130;28;20034;-69
2022/12/13 09:22:28;;;;;;;22.55;13.50;;;;;;;-7.32;90.80;95705.19;4953020;28;20499;-69
2022/12/13 09:25:01;;;;;;;21.85;12.43;;;;;;;-6.71;91.20;95713.78;4955527;28;20042;-68
2022/12/13 09:27:31;;;;;;;28.63;16.33;;;;;;;-6.35;85.36;95708.91;4931797;28;20060;-70
2022/12/13 09:30:15;;;;;;;23.40;13.55;;;;;;;-5.65;86.95;95704.84;4939080;28;20054;-69
2022/12/13 09:32:50;;;;;;;27.38;15.88;;;;;;;-5.43;82.94;95709.63;4957332;28;20034;-69
2022/12/13 09:35:19;;;;;;;29.33;14.90;;;;;;;-5.54;81.85;95703.63;4967182;28;20040;-70
2022/12/13 09:37:47;;;;;;;24.52;14.45;;;;;;;-6.41;86.01;95700.16;4963185;28;20433;-69
2022/12/13 09:40:26;;;;;;;36.17;16.92;;;;;;;-7.04;90.37;95708.19;4961704;28;20440;-69
2022/12/13 09:42:58;;;;;;;29.27;15.68;;;;;;;-6.96;90.63;95703.06;5000630;28;20046;-69
2022/12/13 09:45:24;;;;;;;27.45;11.90;;;;;;;-5.99;88.54;95693.28;4989928;28;20281;-69
2022/12/13 09:48:19;;;;;;;19.23;12.65;;;;;;;-5.72;84.44;95710.53;4991800;28;20038;-69
2022/12/13 09:50:58;;;;;;;25.83;13.63;;;;;;;-6.01;86.26;95706.13;4984912;28;20046;-70
2022/12/13 09:53:33;;;;;;;21.48;12.25;;;;;;;-5.95;86.45;95704.94;4982295;28;20504;-69
2022/12/13 09:56:10;;;;;;;21.33;13.30;;;;;;;-6.00;83.96;95706.91;4995473;28;20046;-69
2022/12/13 09:58:48;;;;;;;23.00;12.52;;;;;;;-5.99;85.51;95706.63;4993595;28;20100;-68
2022/12/13 10:01:25;;;;;;;24.40;13.27;;;;;;;-6.32;87.56;95696.88;4971448;28;20101;-68
2022/12/13 10:03:59;;;;;;;22.13;12.52;;;;;;;-6.50;88.78;95693.06;5011477;28;20042;-69
2022/12/13 10:06:30;;;;;;;26.42;14.27;;;;;;;-6.59;90.14;95690.19;5007821;28;20259;-69
2022/12/13 10:09:05;;;;;;;24.92;12.90;;;;;;;-6.50;89.99;95685.84;5006268;28;20075;-68
2022/12/13 10:11:50;;;;;;;25.05;14.13;;;;;;;-6.79;89.79;95684.03;5003276;28;20084;-69
2022/12/13 10:14:55;;;;;;;19.17;11.55;;;;;;;-6.58;90.66;95681.16;4972897;28;20045;-68
2022/12/13 10:17:33;;;;;;;25.58;14.40;;;;;;;-6.62;90.18;95683.59;5001175;28;20131;-68
2022/12/13 10:20:24;;;;;;;23.70;13.90;;;;;;;-6.66;91.18;95673.75;5013664;28;20046;-69
2022/12/13 10:23:13;;;;;;;25.08;15.00;;;;;;;-6.45;91.36;95683.13;5012309;28;20068;-70
2022/12/13 10:25:57;;;;;;;24.05;13.68;;;;;;;-6.44;89.01;95670.63;5001885;28;20171;-68
2022/12/13 10:28:38;;;;;;;23.60;14.30;;;;;;;-6.15;87.60;95667.88;5018504;28;20328;-69
2022/12/13 10:31:31;;;;;;;27.23;13.43;;;;;;;-6.55;89.88;95673.38;4992336;28;20072;-67
2022/12/13 10:34:24;;;;;;;23.90;14.02;;;;;;;-6.35;89.73;95671.59;5010040;28;20038;-69
2022/12/13 10:36:54;;;;;;;22.55;12.60;;;;;;;-6.16;89.42;95666.28;5007292;28;20082;-70
2022/12/13 10:39:41;;;;;;;20.05;12.90;;;;;;;-5.89;89.50;95665.66;4989705;28;20049;-68
2022/12/13 10:42:15;;;;;;;25.65;14.95;;;;;;;-5.67;89.78;95667.78;4981300;28;20116;-67
2022/12/13 10:45:18;;;;;;;19.65;11.35;;;;;;;-5.58;87.75;95658.06;4998832;28;20034;-68
2022/12/13 10:47:49;;;;;;;22.50;13.20;;;;;;;-5.72;88.32;95664.41;5003944;28;20041;-69
2022/12/13 10:50:31;;;;;;;23.63;12.68;;;;;;;-5.99;86.90;95657.84;4989413;28;20320;-69
2022/12/13 10:53:19;;;;;;;20.17;11.40;;;;;;;-5.88;87.59;95656.59;4996590;28;20743;-69
2022/12/13 10:56:12;;;;;;;20.73;12.43;;;;;;;-5.58;88.78;95641.25;4975456;28;20046;-69
2022/12/13 10:58:46;;;;;;;20.23;11.18;;;;;;;-5.46;87.50;95648.81;4982846;28;20465;-68
2022/12/13 11:01:17;;;;;;;22.10;11.93;;;;;;;-5.66;85.86;95649.91;5003325;28;20489;-68
2022/12/13 11:04:02;;;;;;;23.75;13.02;;;;;;;-5.45;87.21;95648.53;5006119;28;20525;-68
2022/12/13 11:06:51;;;;;;;21.00;12.30;;;;;;;-5.65;86.19;95652.28;5006436;28;20113;-69
2022/12/13 11:09:36;;;;;;;22.33;11.60;;;;;;;-5.51;87.47;95652.38;4981712;28;20049;-68
2022/12/13 11:12:11;;;;;;;21.73;13.82;;;;;;;-5.26;86.57;95648.50;4972023;28;20107;-67
2022/12/13 11:15:17;;;;;;;25.13;13.23;;;;;;;-5.57;86.69;95648.94;4987103;28;20058;-69
2022/12/13 11:17:57;;;;;;;21.45;12.35;;;;;;;-5.51;86.09;95646.22;4978440;28;20047;-69
2022/12/13 11:20:33;;;;;;;25.27;13.55;;;;;;;-5.80;87.60;95645.28;4975050;28;20046;-69
2022/12/13 11:23:40;;;;;;;25.10;13.77;;;;;;;-5.83;87.78;95645.06;5002921;28;20624;-69
2022/12/13 11:26:10;;;;;;;;;;;;;;;-6.03;87.77;95630.16;4964230;28;20053;-68
2022/12/13 11:28:42;;;;;;;29.10;15.50;;;;;;;-5.90;88.10;95637.41;4988213;28;19923;-69
2022/12/13 11:31:26;;;;;;;26.08;13.05;;;;;;;-5.85;88.87;95626.69;5003776;28;20057;-68
2022/12/13 11:34:21;;;;;;;22.30;13.07;;;;;;;-5.97;88.81;95629.78;4994646;28;20049;-69
2022/12/13 11:37:28;;;;;;;25.23;14.73;;;;;;;-6.28;89.69;95620.59;5007950;28;20046;-69
2022/12/13 11:40:19;;;;;;;27.40;12.57;;;;;;;-6.18;89.75;95623.94;4999347;28;20185;-68
2022/12/13 11:43:24;;;;;;;23.10;12.40;;;;;;;-6.07;89.85;95623.81;4986886;28;20029;-69